Ana Sayfa
METAR-TAF:

METAR-TAF

Havaalanları :

Baf Uluslararası Havalimanı

Baf, Kıbrıs

Enlem: 34-43N, Boylam: 032-29E, yükseklik: 11 m

Güncel hava durumu gözlemi

Rapor saat 07:00 UTC de 38 dakika önce yapıldı.
Rüzgar batı/kuzeybatıdan 8 kt
Sıcaklık 17°C
Nem 63%
Basınç 1014 hPa
Görüş mesafesi 10 km veya daha fazla
1500 m altında bulut yok ve kümülonimbus yok

METAR: LCPH 250700Z 30008KT CAVOK 17/10 Q1014

Saat: 09:38 (07:38 UTC)

Tahmin

Rapor saat 05:30 UTC de 2 saat ve 8 dakika önce yapıldı.
Ayın 25'si saat 06 UTC'den ayın 26'si saat 06 UTC'ye kadar geçerli Tahmin
Rüzgar kuzeydoğudan 7 kt
Görüş mesafesi 10 km veya daha fazla
3000 ft yükseklikte az bulutlu
Dönüşüyor
ayın 25'si saat 06 UTC'den ayın 25'si saat 09 UTC'ye kadar
Rüzgar kuzey/kuzeybatıdan 13 kt
Dönüşüyor
ayın 25'si saat 18 UTC'den ayın 25'si saat 21 UTC'ye kadar
Rüzgar batıdan 8 kt

TAF: LCPH 250530Z 2506/2606 04007KT 9999 FEW030 BECMG 2506/2509 34013KT BECMG 2518/2521 28008KT

4.000'den fazla havaalanı için hava durumu gözlemleri ve tahminleri (METAR ve TAF raporları).

Kullanılabilir istasyonlar harita üzerinde sarı ve kırmızı noktalarla gösterilir.

İstasyonun adını görmek için fareyi noktanın üzerinde gezdirin.

Sonrasında hava gözlem ve tahminlerini görmek için tıklayın.

Haritayı değiştirmek için: yaklaştırmak için siyah artı işaretli yeşil düğmeye ve uzaklaştırmak için de eksi işaretli düğmeye hızla tıklayın; bitişik haritalar için yeşil okları kullanın.


METAR-TAF: